Nearby METAR Reports

 

KAST - Astoria, Oregon, USA
Distance from station: N 11mi, 18km
Updated: Thu, 18-Aug-2022 6:18am PDT
Mist, Overcast
Mist, Overcast
 Wind from S
Wind: S 5 mph , 7 km/h
Temperature: 57°F , 14°C
Dew Point: 57°F , 14°C
Humidity: 100%
Barometer: 29.92 inHg , 1013.2 hPa
Summary: Mist
Clouds: Overcast
Visibility: 3/4 mile , 1.2 km
Cloud details: Overcast 400 ft
2022/08/18 13:18 KAST 181318Z AUTO 17004KT 3/4SM BR OVC004 14/14 A2992 RMK AO2 T01440139
KTMK - Tillamook, Oregon, USA
Distance from station: S 40mi, 64km
Updated: Thu, 18-Aug-2022 6:15am PDT
Clear
Clear
 Wind from calm
Wind: Calm
Temperature: 54°F , 12°C
Dew Point: 52°F , 11°C
Humidity: 94%
Barometer: 29.95 inHg , 1014.2 hPa
Clouds: Clear
Visibility: 10 miles , 16 km
2022/08/18 13:15 KTMK 181315Z AUTO 00000KT 10SM CLR 12/11 A2995 RMK AO2
 
KKLS - Kelso Longveiw, Washington, USA
Distance from station: E 50mi, 81km
Updated: Thu, 18-Aug-2022 5:56am PDT
Clear
Clear
 Wind from calm
Wind: Calm
Temperature: 66°F , 19°C
Dew Point: 63°F , 17°C
Humidity: 88%
Barometer: 29.92 inHg , 1013.2 hPa
Clouds: Clear
Visibility: 10 miles , 16 km
2022/08/18 12:56 KKLS 181256Z AUTO 00000KT 10SM CLR 19/17 A2992 RMK AO2 SLP134 T01940172
KSPB - Scappoose, Oregon, USA
Distance from station: ESE 53mi, 86km
Updated: Thu, 18-Aug-2022 5:53am PDT
Clear
Clear
 Wind from calm
Wind: Calm
Temperature: 66°F , 19°C
Dew Point: 63°F , 17°C
Humidity: 88%
Barometer: 29.90 inHg , 1012.5 hPa
Clouds: Clear
Visibility: 10 miles , 16 km
2022/08/18 12:53 KSPB 181253Z AUTO 00000KT 10SM CLR 19/17 A2990 RMK AO2 SLP123 T01940172
 
KHIO - Hillsboro/Portld, Oregon, USA
Distance from station: ESE 56mi, 90km
Updated: Thu, 18-Aug-2022 5:53am PDT
Clear
Clear
 Wind from NNW
Wind: NNW 3 mph , 6 km/h
Temperature: 66°F , 19°C
Dew Point: 61°F , 16°C
Humidity: 83%
Barometer: 29.90 inHg , 1012.5 hPa
Clouds: Clear
Visibility: 10 miles , 16 km
2022/08/18 12:53 KHIO 181253Z 33003KT 10SM CLR 19/16 A2990 RMK AO2 SLP121 T01890161